sensor_id;sensor_type;location;lat;lon;timestamp;pressure;altitude;pressure_sealevel;temperature
47484;BMP280;54076;50.322;18.650;2023-05-10T00:04:11;98052.20;;;5.72
47484;BMP280;54076;50.322;18.650;2023-05-10T00:09:12;98050.95;;;5.80
47484;BMP280;54076;50.322;18.650;2023-05-10T00:14:13;98042.93;;;5.59
47484;BMP280;54076;50.322;18.650;2023-05-10T00:19:14;98044.13;;;5.60
47484;BMP280;54076;50.322;18.650;2023-05-10T00:24:15;98039.88;;;5.48
47484;BMP280;54076;50.322;18.650;2023-05-10T00:29:16;98037.70;;;5.36
47484;BMP280;54076;50.322;18.650;2023-05-10T00:34:17;98040.34;;;5.21
47484;BMP280;54076;50.322;18.650;2023-05-10T00:39:18;98033.83;;;5.12
47484;BMP280;54076;50.322;18.650;2023-05-10T00:44:19;98035.67;;;5.10
47484;BMP280;54076;50.322;18.650;2023-05-10T00:49:20;98035.35;;;5.02
47484;BMP280;54076;50.322;18.650;2023-05-10T00:54:21;98027.27;;;4.96
47484;BMP280;54076;50.322;18.650;2023-05-10T00:59:23;98025.76;;;4.99
47484;BMP280;54076;50.322;18.650;2023-05-10T01:04:24;98024.39;;;4.71
47484;BMP280;54076;50.322;18.650;2023-05-10T01:09:29;98023.59;;;4.83
47484;BMP280;54076;50.322;18.650;2023-05-10T01:14:30;98021.91;;;4.77
47484;BMP280;54076;50.322;18.650;2023-05-10T01:19:34;98018.17;;;4.58
47484;BMP280;54076;50.322;18.650;2023-05-10T01:25:35;98012.11;;;4.55
47484;BMP280;54076;50.322;18.650;2023-05-10T01:36:30;98003.25;;;4.46
47484;BMP280;54076;50.322;18.650;2023-05-10T01:42:03;98002.02;;;4.40
47484;BMP280;54076;50.322;18.650;2023-05-10T01:52:14;97999.66;;;4.16
47484;BMP280;54076;50.322;18.650;2023-05-10T01:57:16;97998.34;;;4.04
47484;BMP280;54076;50.322;18.650;2023-05-10T02:02:20;97995.06;;;4.00
47484;BMP280;54076;50.322;18.650;2023-05-10T02:07:23;97996.71;;;4.12
47484;BMP280;54076;50.322;18.650;2023-05-10T02:12:24;97987.48;;;4.06
47484;BMP280;54076;50.322;18.650;2023-05-10T02:17:27;97985.95;;;3.93
47484;BMP280;54076;50.322;18.650;2023-05-10T02:22:29;97983.51;;;3.74
47484;BMP280;54076;50.322;18.650;2023-05-10T02:27:31;97981.00;;;3.65
47484;BMP280;54076;50.322;18.650;2023-05-10T02:32:33;97980.86;;;3.56
47484;BMP280;54076;50.322;18.650;2023-05-10T02:37:37;97975.21;;;3.54
47484;BMP280;54076;50.322;18.650;2023-05-10T02:42:41;97980.42;;;3.39
47484;BMP280;54076;50.322;18.650;2023-05-10T02:47:43;97980.19;;;3.39
47484;BMP280;54076;50.322;18.650;2023-05-10T02:52:47;97983.08;;;3.28
47484;BMP280;54076;50.322;18.650;2023-05-10T02:57:58;97982.70;;;3.48
47484;BMP280;54076;50.322;18.650;2023-05-10T03:02:59;97979.64;;;3.34
47484;BMP280;54076;50.322;18.650;2023-05-10T03:08:01;97987.56;;;3.37
47484;BMP280;54076;50.322;18.650;2023-05-10T03:13:31;97986.04;;;3.31
47484;BMP280;54076;50.322;18.650;2023-05-10T03:19:14;97985.52;;;3.20
47484;BMP280;54076;50.322;18.650;2023-05-10T03:24:18;97986.96;;;3.28
47484;BMP280;54076;50.322;18.650;2023-05-10T03:29:21;97982.52;;;3.15
47484;BMP280;54076;50.322;18.650;2023-05-10T03:34:24;97976.45;;;3.25
47484;BMP280;54076;50.322;18.650;2023-05-10T03:39:25;97975.08;;;3.24
47484;BMP280;54076;50.322;18.650;2023-05-10T03:44:26;97971.73;;;3.09
47484;BMP280;54076;50.322;18.650;2023-05-10T03:49:27;97969.49;;;3.24
47484;BMP280;54076;50.322;18.650;2023-05-10T03:54:27;97968.27;;;3.43
47484;BMP280;54076;50.322;18.650;2023-05-10T03:59:29;97964.91;;;3.53
47484;BMP280;54076;50.322;18.650;2023-05-10T04:04:30;97968.88;;;3.44
47484;BMP280;54076;50.322;18.650;2023-05-10T04:09:31;97968.77;;;3.57
47484;BMP280;54076;50.322;18.650;2023-05-10T04:14:33;97975.15;;;3.77
47484;BMP280;54076;50.322;18.650;2023-05-10T04:19:34;97975.88;;;3.69
47484;BMP280;54076;50.322;18.650;2023-05-10T04:24:35;97978.45;;;3.83
47484;BMP280;54076;50.322;18.650;2023-05-10T04:29:36;97978.69;;;3.93
47484;BMP280;54076;50.322;18.650;2023-05-10T04:34:37;97981.45;;;3.88
47484;BMP280;54076;50.322;18.650;2023-05-10T04:39:38;97978.71;;;4.46
47484;BMP280;54076;50.322;18.650;2023-05-10T04:44:39;97982.89;;;4.62
47484;BMP280;54076;50.322;18.650;2023-05-10T04:49:40;97984.16;;;4.64
47484;BMP280;54076;50.322;18.650;2023-05-10T04:54:41;97980.21;;;4.82
47484;BMP280;54076;50.322;18.650;2023-05-10T04:59:42;97985.23;;;4.92
47484;BMP280;54076;50.322;18.650;2023-05-10T05:04:43;97977.01;;;5.15
47484;BMP280;54076;50.322;18.650;2023-05-10T05:09:44;97982.35;;;5.36
47484;BMP280;54076;50.322;18.650;2023-05-10T05:14:45;97981.21;;;5.55
47484;BMP280;54076;50.322;18.650;2023-05-10T05:19:46;97974.90;;;5.75
47484;BMP280;54076;50.322;18.650;2023-05-10T05:24:47;97977.73;;;5.60
47484;BMP280;54076;50.322;18.650;2023-05-10T05:29:48;97975.05;;;5.80
47484;BMP280;54076;50.322;18.650;2023-05-10T05:34:49;97980.92;;;5.88
47484;BMP280;54076;50.322;18.650;2023-05-10T05:39:53;97977.25;;;6.27
47484;BMP280;54076;50.322;18.650;2023-05-10T05:44:55;97979.62;;;6.75
47484;BMP280;54076;50.322;18.650;2023-05-10T05:49:56;97980.92;;;7.06
47484;BMP280;54076;50.322;18.650;2023-05-10T05:54:57;97977.20;;;7.28
47484;BMP280;54076;50.322;18.650;2023-05-10T05:59:58;97976.46;;;7.39
47484;BMP280;54076;50.322;18.650;2023-05-10T06:05:00;97974.56;;;7.69
47484;BMP280;54076;50.322;18.650;2023-05-10T06:10:01;97972.55;;;7.60
47484;BMP280;54076;50.322;18.650;2023-05-10T06:15:03;97969.56;;;7.94
47484;BMP280;54076;50.322;18.650;2023-05-10T06:20:05;97969.56;;;7.90
47484;BMP280;54076;50.322;18.650;2023-05-10T06:25:07;97972.30;;;8.05
47484;BMP280;54076;50.322;18.650;2023-05-10T06:30:09;97971.86;;;8.59
47484;BMP280;54076;50.322;18.650;2023-05-10T06:35:10;97977.27;;;8.88
47484;BMP280;54076;50.322;18.650;2023-05-10T06:40:11;97977.85;;;8.70
47484;BMP280;54076;50.322;18.650;2023-05-10T06:45:14;97976.86;;;8.75
47484;BMP280;54076;50.322;18.650;2023-05-10T06:50:15;97967.45;;;9.00
47484;BMP280;54076;50.322;18.650;2023-05-10T06:55:16;97970.33;;;9.14
47484;BMP280;54076;50.322;18.650;2023-05-10T07:00:18;97973.38;;;9.44
47484;BMP280;54076;50.322;18.650;2023-05-10T07:05:20;97974.73;;;9.78
47484;BMP280;54076;50.322;18.650;2023-05-10T07:10:21;97967.95;;;10.22
47484;BMP280;54076;50.322;18.650;2023-05-10T07:15:22;97964.16;;;10.02
47484;BMP280;54076;50.322;18.650;2023-05-10T07:20:23;97960.26;;;10.24
47484;BMP280;54076;50.322;18.650;2023-05-10T07:25:24;97966.09;;;10.14
47484;BMP280;54076;50.322;18.650;2023-05-10T07:30:25;97960.94;;;10.53
47484;BMP280;54076;50.322;18.650;2023-05-10T07:35:26;97961.33;;;10.41
47484;BMP280;54076;50.322;18.650;2023-05-10T07:40:28;97959.23;;;10.68
47484;BMP280;54076;50.322;18.650;2023-05-10T07:45:29;97956.44;;;11.01
47484;BMP280;54076;50.322;18.650;2023-05-10T07:50:30;97959.59;;;10.61
47484;BMP280;54076;50.322;18.650;2023-05-10T07:55:31;97961.52;;;10.88
47484;BMP280;54076;50.322;18.650;2023-05-10T08:00:32;97960.86;;;10.93
47484;BMP280;54076;50.322;18.650;2023-05-10T08:05:33;97958.45;;;10.89
47484;BMP280;54076;50.322;18.650;2023-05-10T08:10:34;97953.19;;;11.05
47484;BMP280;54076;50.322;18.650;2023-05-10T08:15:35;97947.57;;;11.23
47484;BMP280;54076;50.322;18.650;2023-05-10T08:20:36;97946.85;;;11.54
47484;BMP280;54076;50.322;18.650;2023-05-10T08:25:37;97951.88;;;11.57
47484;BMP280;54076;50.322;18.650;2023-05-10T08:30:38;97956.77;;;11.69
47484;BMP280;54076;50.322;18.650;2023-05-10T08:35:39;97949.46;;;11.45
47484;BMP280;54076;50.322;18.650;2023-05-10T08:40:42;97945.58;;;11.92
47484;BMP280;54076;50.322;18.650;2023-05-10T08:45:44;97949.77;;;12.25
47484;BMP280;54076;50.322;18.650;2023-05-10T08:50:48;97950.77;;;11.96
47484;BMP280;54076;50.322;18.650;2023-05-10T08:55:50;97948.61;;;12.00
47484;BMP280;54076;50.322;18.650;2023-05-10T09:00:51;97950.63;;;12.08
47484;BMP280;54076;50.322;18.650;2023-05-10T09:05:53;97949.61;;;12.40
47484;BMP280;54076;50.322;18.650;2023-05-10T09:10:54;97946.56;;;12.38
47484;BMP280;54076;50.322;18.650;2023-05-10T09:15:56;97941.14;;;12.45
47484;BMP280;54076;50.322;18.650;2023-05-10T09:20:57;97940.86;;;12.52
47484;BMP280;54076;50.322;18.650;2023-05-10T09:26:05;97950.10;;;12.76
47484;BMP280;54076;50.322;18.650;2023-05-10T09:31:06;97945.93;;;12.90
47484;BMP280;54076;50.322;18.650;2023-05-10T09:36:07;97948.69;;;13.31
47484;BMP280;54076;50.322;18.650;2023-05-10T09:41:24;97945.98;;;13.50
47484;BMP280;54076;50.322;18.650;2023-05-10T09:46:25;97951.77;;;13.83
47484;BMP280;54076;50.322;18.650;2023-05-10T09:51:26;97956.92;;;14.18
47484;BMP280;54076;50.322;18.650;2023-05-10T09:56:35;97951.54;;;14.34
47484;BMP280;54076;50.322;18.650;2023-05-10T10:01:37;97944.86;;;14.59
47484;BMP280;54076;50.322;18.650;2023-05-10T10:06:39;97955.95;;;15.63
47484;BMP280;54076;50.322;18.650;2023-05-10T10:11:40;97948.38;;;15.37
47484;BMP280;54076;50.322;18.650;2023-05-10T10:16:42;97942.04;;;16.21
47484;BMP280;54076;50.322;18.650;2023-05-10T10:21:43;97955.55;;;16.57
47484;BMP280;54076;50.322;18.650;2023-05-10T10:26:44;97953.78;;;17.18
47484;BMP280;54076;50.322;18.650;2023-05-10T10:31:55;97947.35;;;17.16
47484;BMP280;54076;50.322;18.650;2023-05-10T10:37:05;97953.67;;;17.09
47484;BMP280;54076;50.322;18.650;2023-05-10T10:42:06;97950.02;;;17.29
47484;BMP280;54076;50.322;18.650;2023-05-10T10:57:48;97938.64;;;18.77
47484;BMP280;54076;50.322;18.650;2023-05-10T11:02:55;97933.74;;;19.35
47484;BMP280;54076;50.322;18.650;2023-05-10T11:07:59;97911.17;;;18.17
47484;BMP280;54076;50.322;18.650;2023-05-10T11:13:01;97924.29;;;18.22
47484;BMP280;54076;50.322;18.650;2023-05-10T11:18:29;97935.02;;;18.65
47484;BMP280;54076;50.322;18.650;2023-05-10T11:23:48;97933.73;;;18.60
47484;BMP280;54076;50.322;18.650;2023-05-10T11:28:50;97929.44;;;19.81
47484;BMP280;54076;50.322;18.650;2023-05-10T11:33:56;97926.57;;;19.47
47484;BMP280;54076;50.322;18.650;2023-05-10T11:38:57;97925.38;;;20.06
47484;BMP280;54076;50.322;18.650;2023-05-10T11:43:58;97926.61;;;20.16
47484;BMP280;54076;50.322;18.650;2023-05-10T11:49:01;97927.64;;;20.08
47484;BMP280;54076;50.322;18.650;2023-05-10T11:54:09;97914.61;;;20.39
47484;BMP280;54076;50.322;18.650;2023-05-10T11:59:13;97908.30;;;21.51
47484;BMP280;54076;50.322;18.650;2023-05-10T12:04:14;97904.61;;;20.81
47484;BMP280;54076;50.322;18.650;2023-05-10T12:09:16;97918.13;;;20.05
47484;BMP280;54076;50.322;18.650;2023-05-10T12:14:17;97918.05;;;20.24
47484;BMP280;54076;50.322;18.650;2023-05-10T12:19:20;97897.34;;;19.17
47484;BMP280;54076;50.322;18.650;2023-05-10T12:24:21;97905.56;;;18.44
47484;BMP280;54076;50.322;18.650;2023-05-10T12:29:22;97907.55;;;19.65
47484;BMP280;54076;50.322;18.650;2023-05-10T12:34:30;97890.32;;;18.26
47484;BMP280;54076;50.322;18.650;2023-05-10T12:39:40;97884.63;;;17.34
47484;BMP280;54076;50.322;18.650;2023-05-10T12:44:41;97897.16;;;18.46
47484;BMP280;54076;50.322;18.650;2023-05-10T12:49:42;97900.39;;;19.98
47484;BMP280;54076;50.322;18.650;2023-05-10T12:54:43;97895.86;;;19.56
47484;BMP280;54076;50.322;18.650;2023-05-10T12:59:44;97874.29;;;18.27
47484;BMP280;54076;50.322;18.650;2023-05-10T13:04:45;97868.57;;;17.76
47484;BMP280;54076;50.322;18.650;2023-05-10T13:09:47;97866.11;;;16.73
47484;BMP280;54076;50.322;18.650;2023-05-10T13:14:48;97868.19;;;18.12
47484;BMP280;54076;50.322;18.650;2023-05-10T13:19:49;97860.66;;;18.52
47484;BMP280;54076;50.322;18.650;2023-05-10T13:24:50;97853.11;;;17.64
47484;BMP280;54076;50.322;18.650;2023-05-10T13:29:51;97857.39;;;17.96
47484;BMP280;54076;50.322;18.650;2023-05-10T13:34:52;97844.55;;;17.48
47484;BMP280;54076;50.322;18.650;2023-05-10T13:39:53;97847.57;;;17.22
47484;BMP280;54076;50.322;18.650;2023-05-10T13:44:54;97827.77;;;16.71
47484;BMP280;54076;50.322;18.650;2023-05-10T13:49:55;97834.28;;;16.71
47484;BMP280;54076;50.322;18.650;2023-05-10T13:54:56;97821.67;;;16.80
47484;BMP280;54076;50.322;18.650;2023-05-10T13:59:58;97821.45;;;17.03
47484;BMP280;54076;50.322;18.650;2023-05-10T14:04:59;97814.08;;;17.11
47484;BMP280;54076;50.322;18.650;2023-05-10T14:10:00;97817.86;;;17.28
47484;BMP280;54076;50.322;18.650;2023-05-10T14:15:01;97821.40;;;17.50
47484;BMP280;54076;50.322;18.650;2023-05-10T14:20:03;97812.36;;;17.17
47484;BMP280;54076;50.322;18.650;2023-05-10T14:25:04;97811.91;;;16.93
47484;BMP280;54076;50.322;18.650;2023-05-10T14:30:06;97814.73;;;17.25
47484;BMP280;54076;50.322;18.650;2023-05-10T14:35:07;97810.33;;;17.23
47484;BMP280;54076;50.322;18.650;2023-05-10T14:40:10;97808.12;;;17.26
47484;BMP280;54076;50.322;18.650;2023-05-10T14:45:11;97805.67;;;17.32
47484;BMP280;54076;50.322;18.650;2023-05-10T14:50:12;97807.44;;;17.61
47484;BMP280;54076;50.322;18.650;2023-05-10T14:55:14;97801.56;;;18.03
47484;BMP280;54076;50.322;18.650;2023-05-10T15:00:16;97806.29;;;17.54
47484;BMP280;54076;50.322;18.650;2023-05-10T15:05:17;97813.02;;;17.31
47484;BMP280;54076;50.322;18.650;2023-05-10T15:10:18;97803.08;;;17.44
47484;BMP280;54076;50.322;18.650;2023-05-10T15:15:19;97801.73;;;17.04
47484;BMP280;54076;50.322;18.650;2023-05-10T15:20:20;97797.27;;;16.96
47484;BMP280;54076;50.322;18.650;2023-05-10T15:25:22;97803.27;;;18.33
47484;BMP280;54076;50.322;18.650;2023-05-10T15:30:24;97801.60;;;17.21
47484;BMP280;54076;50.322;18.650;2023-05-10T15:35:26;97799.98;;;18.11
47484;BMP280;54076;50.322;18.650;2023-05-10T15:40:30;97803.87;;;17.31
47484;BMP280;54076;50.322;18.650;2023-05-10T15:45:31;97809.63;;;17.13
47484;BMP280;54076;50.322;18.650;2023-05-10T15:50:32;97814.09;;;19.81
47484;BMP280;54076;50.322;18.650;2023-05-10T15:55:33;97808.68;;;18.46
47484;BMP280;54076;50.322;18.650;2023-05-10T16:00:35;97819.98;;;18.92
47484;BMP280;54076;50.322;18.650;2023-05-10T16:05:36;97806.11;;;17.45
47484;BMP280;54076;50.322;18.650;2023-05-10T16:10:37;97792.27;;;16.52
47484;BMP280;54076;50.322;18.650;2023-05-10T16:15:38;97788.72;;;15.97
47484;BMP280;54076;50.322;18.650;2023-05-10T16:20:39;97798.27;;;15.58
47484;BMP280;54076;50.322;18.650;2023-05-10T16:25:40;97799.07;;;15.21
47484;BMP280;54076;50.322;18.650;2023-05-10T16:30:41;97796.72;;;15.24
47484;BMP280;54076;50.322;18.650;2023-05-10T16:35:42;97797.91;;;15.12
47484;BMP280;54076;50.322;18.650;2023-05-10T16:40:43;97798.41;;;15.02
47484;BMP280;54076;50.322;18.650;2023-05-10T16:45:44;97797.83;;;14.95
47484;BMP280;54076;50.322;18.650;2023-05-10T16:50:45;97798.45;;;15.00
47484;BMP280;54076;50.322;18.650;2023-05-10T16:55:47;97797.56;;;14.99
47484;BMP280;54076;50.322;18.650;2023-05-10T17:00:48;97804.44;;;15.11
47484;BMP280;54076;50.322;18.650;2023-05-10T17:05:49;97810.52;;;15.16
47484;BMP280;54076;50.322;18.650;2023-05-10T17:10:50;97824.55;;;16.78
47484;BMP280;54076;50.322;18.650;2023-05-10T17:15:51;97846.88;;;20.02
47484;BMP280;54076;50.322;18.650;2023-05-10T17:20:52;97854.59;;;21.73
47484;BMP280;54076;50.322;18.650;2023-05-10T17:25:53;97854.83;;;21.78
47484;BMP280;54076;50.322;18.650;2023-05-10T17:30:56;97857.52;;;21.95
47484;BMP280;54076;50.322;18.650;2023-05-10T17:35:57;97852.02;;;21.42
47484;BMP280;54076;50.322;18.650;2023-05-10T17:40:58;97850.01;;;21.09
47484;BMP280;54076;50.322;18.650;2023-05-10T17:45:59;97846.46;;;20.28
47484;BMP280;54076;50.322;18.650;2023-05-10T17:51:00;97835.59;;;17.30
47484;BMP280;54076;50.322;18.650;2023-05-10T17:56:01;97834.21;;;15.83
47484;BMP280;54076;50.322;18.650;2023-05-10T18:01:03;97840.69;;;15.80
47484;BMP280;54076;50.322;18.650;2023-05-10T18:06:04;97840.52;;;14.80
47484;BMP280;54076;50.322;18.650;2023-05-10T18:11:05;97840.77;;;13.91
47484;BMP280;54076;50.322;18.650;2023-05-10T18:16:06;97842.14;;;13.94
47484;BMP280;54076;50.322;18.650;2023-05-10T18:21:08;97850.02;;;13.51
47484;BMP280;54076;50.322;18.650;2023-05-10T18:26:09;97856.80;;;13.21
47484;BMP280;54076;50.322;18.650;2023-05-10T18:31:11;97861.20;;;12.92
47484;BMP280;54076;50.322;18.650;2023-05-10T18:36:12;97864.81;;;12.67
47484;BMP280;54076;50.322;18.650;2023-05-10T18:41:14;97872.15;;;12.50
47484;BMP280;54076;50.322;18.650;2023-05-10T18:46:15;97875.48;;;12.39
47484;BMP280;54076;50.322;18.650;2023-05-10T18:51:16;97879.12;;;12.14
47484;BMP280;54076;50.322;18.650;2023-05-10T18:56:17;97887.89;;;12.03
47484;BMP280;54076;50.322;18.650;2023-05-10T19:01:18;97900.08;;;11.94
47484;BMP280;54076;50.322;18.650;2023-05-10T19:06:19;97900.74;;;11.99
47484;BMP280;54076;50.322;18.650;2023-05-10T19:11:20;97902.84;;;12.08
47484;BMP280;54076;50.322;18.650;2023-05-10T19:16:22;97904.94;;;12.04
47484;BMP280;54076;50.322;18.650;2023-05-10T19:21:22;97905.88;;;11.81
47484;BMP280;54076;50.322;18.650;2023-05-10T19:26:23;97913.16;;;11.68
47484;BMP280;54076;50.322;18.650;2023-05-10T19:31:24;97917.56;;;11.63
47484;BMP280;54076;50.322;18.650;2023-05-10T19:36:26;97915.39;;;11.68
47484;BMP280;54076;50.322;18.650;2023-05-10T19:41:27;97918.02;;;11.62
47484;BMP280;54076;50.322;18.650;2023-05-10T19:46:28;97917.24;;;11.65
47484;BMP280;54076;50.322;18.650;2023-05-10T19:51:29;97922.00;;;11.61
47484;BMP280;54076;50.322;18.650;2023-05-10T19:56:30;97922.44;;;11.47
47484;BMP280;54076;50.322;18.650;2023-05-10T20:01:31;97920.52;;;11.28
47484;BMP280;54076;50.322;18.650;2023-05-10T20:06:32;97925.83;;;11.28
47484;BMP280;54076;50.322;18.650;2023-05-10T20:11:33;97922.56;;;11.08
47484;BMP280;54076;50.322;18.650;2023-05-10T20:16:34;97929.40;;;11.10
47484;BMP280;54076;50.322;18.650;2023-05-10T20:21:35;97929.09;;;10.91
47484;BMP280;54076;50.322;18.650;2023-05-10T20:26:36;97934.63;;;10.90
47484;BMP280;54076;50.322;18.650;2023-05-10T20:31:37;97935.23;;;10.81
47484;BMP280;54076;50.322;18.650;2023-05-10T20:36:38;97931.42;;;10.56
47484;BMP280;54076;50.322;18.650;2023-05-10T20:41:39;97931.98;;;10.41
47484;BMP280;54076;50.322;18.650;2023-05-10T20:46:40;97931.67;;;10.25
47484;BMP280;54076;50.322;18.650;2023-05-10T20:51:41;97932.41;;;10.27
47484;BMP280;54076;50.322;18.650;2023-05-10T20:56:42;97935.60;;;10.17
47484;BMP280;54076;50.322;18.650;2023-05-10T21:01:44;97934.41;;;10.10
47484;BMP280;54076;50.322;18.650;2023-05-10T21:06:45;97937.54;;;9.86
47484;BMP280;54076;50.322;18.650;2023-05-10T21:11:48;97942.39;;;9.85
47484;BMP280;54076;50.322;18.650;2023-05-10T21:16:49;97942.60;;;9.73
47484;BMP280;54076;50.322;18.650;2023-05-10T21:21:51;97947.33;;;9.71
47484;BMP280;54076;50.322;18.650;2023-05-10T21:26:52;97950.98;;;9.57
47484;BMP280;54076;50.322;18.650;2023-05-10T21:31:53;97947.94;;;9.66
47484;BMP280;54076;50.322;18.650;2023-05-10T21:36:54;97948.22;;;9.47
47484;BMP280;54076;50.322;18.650;2023-05-10T21:41:55;97950.70;;;9.44
47484;BMP280;54076;50.322;18.650;2023-05-10T21:46:56;97950.54;;;9.16
47484;BMP280;54076;50.322;18.650;2023-05-10T21:51:57;97951.98;;;9.16
47484;BMP280;54076;50.322;18.650;2023-05-10T21:56:57;97950.55;;;9.19
47484;BMP280;54076;50.322;18.650;2023-05-10T22:01:58;97951.09;;;9.18
47484;BMP280;54076;50.322;18.650;2023-05-10T22:06:59;97951.64;;;9.08
47484;BMP280;54076;50.322;18.650;2023-05-10T22:12:00;97955.21;;;8.90
47484;BMP280;54076;50.322;18.650;2023-05-10T22:17:01;97962.62;;;8.79
47484;BMP280;54076;50.322;18.650;2023-05-10T22:22:02;97968.71;;;8.60
47484;BMP280;54076;50.322;18.650;2023-05-10T22:27:04;97969.88;;;8.48
47484;BMP280;54076;50.322;18.650;2023-05-10T22:32:05;97972.39;;;8.40
47484;BMP280;54076;50.322;18.650;2023-05-10T22:37:06;97971.20;;;8.35
47484;BMP280;54076;50.322;18.650;2023-05-10T22:42:07;97973.45;;;8.33
47484;BMP280;54076;50.322;18.650;2023-05-10T22:47:08;97975.94;;;8.23
47484;BMP280;54076;50.322;18.650;2023-05-10T22:52:09;97975.33;;;8.24
47484;BMP280;54076;50.322;18.650;2023-05-10T22:57:11;97982.56;;;8.28
47484;BMP280;54076;50.322;18.650;2023-05-10T23:02:12;97981.12;;;8.29
47484;BMP280;54076;50.322;18.650;2023-05-10T23:07:14;97985.95;;;8.28
47484;BMP280;54076;50.322;18.650;2023-05-10T23:12:15;97983.89;;;8.22
47484;BMP280;54076;50.322;18.650;2023-05-10T23:17:16;97987.98;;;8.08
47484;BMP280;54076;50.322;18.650;2023-05-10T23:22:17;97990.27;;;7.98
47484;BMP280;54076;50.322;18.650;2023-05-10T23:27:18;97995.88;;;7.93
47484;BMP280;54076;50.322;18.650;2023-05-10T23:32:19;97993.68;;;7.98
47484;BMP280;54076;50.322;18.650;2023-05-10T23:37:20;97993.52;;;8.11
47484;BMP280;54076;50.322;18.650;2023-05-10T23:42:21;97990.88;;;8.12
47484;BMP280;54076;50.322;18.650;2023-05-10T23:47:22;97989.36;;;8.06
47484;BMP280;54076;50.322;18.650;2023-05-10T23:52:23;97987.02;;;7.90
47484;BMP280;54076;50.322;18.650;2023-05-10T23:57:27;97993.31;;;7.80
